Terminal Aerodrome Forecast
Issued by NWS Indianapolis, IN

Home | Current Version | Previous Version | Text Only | Print | Product List | Glossary On
Versions: 1 2 3 4 5 6 7 8 9 10 11 12 13 14 15 16 17 18 19 20 21 22 23 24 25 26 27 28 29 30 31 32
000
FTUS43 KIND 292300
TAFIND
TAF
KIND 292320Z 3000/0106 27008KT P6SM SCT030 BKN080
      TEMPO 3000/3002 5SM SHRA BKN030
     FM300200 24006KT P6SM SCT030 BKN050
     FM300900 24005KT 5SM BR OVC010
     FM301600 25010KT P6SM BKN035 PROB30 3018/3024 3SM TSRA
      OVC030CB=

USA.gov is the U.S. government's official web portal to all federal, state and local government web resources and services.